createdAt,value
2019-05-10T00:00:25.340Z,90.70
2019-05-10T00:10:27.496Z,90.80
2019-05-10T00:20:29.538Z,90.70
2019-05-10T00:30:31.667Z,90.70
2019-05-10T00:40:33.670Z,90.50
2019-05-10T00:50:35.706Z,90.30
2019-05-10T01:00:37.731Z,90.00
2019-05-10T01:10:39.748Z,90.00
2019-05-10T01:20:41.738Z,90.30
2019-05-10T01:30:43.805Z,90.00
2019-05-10T01:40:45.788Z,90.40
2019-05-10T01:50:47.915Z,90.00
2019-05-10T02:00:49.876Z,89.90
2019-05-10T02:10:51.814Z,89.80
2019-05-10T02:20:54.066Z,89.30
2019-05-10T02:30:56.208Z,88.70
2019-05-10T02:40:58.311Z,88.50
2019-05-10T02:51:01.484Z,87.90
2019-05-10T03:01:04.489Z,87.90
2019-05-10T03:11:07.383Z,88.10
2019-05-10T03:21:13.517Z,87.70
2019-05-10T03:31:15.628Z,87.70
2019-05-10T03:41:17.643Z,87.50
2019-05-10T03:51:19.748Z,87.50
2019-05-10T04:01:21.791Z,88.30
2019-05-10T04:11:23.809Z,88.90
2019-05-10T04:21:25.835Z,89.20
2019-05-10T04:31:28.164Z,90.40
2019-05-10T04:41:30.199Z,90.40
2019-05-10T04:51:32.277Z,90.80
2019-05-10T05:01:34.361Z,91.00
2019-05-10T05:11:36.324Z,91.00
2019-05-10T05:21:38.346Z,91.10
2019-05-10T05:31:40.363Z,91.00
2019-05-10T05:41:49.351Z,91.00
2019-05-10T05:51:47.078Z,91.00
2019-05-10T06:01:49.199Z,90.90
2019-05-10T06:11:51.270Z,90.90
2019-05-10T06:21:58.096Z,90.90
2019-05-10T06:31:59.022Z,90.80
2019-05-10T06:42:01.050Z,90.70
2019-05-10T06:52:03.073Z,90.70
2019-05-10T07:02:05.166Z,90.60
2019-05-10T07:12:09.429Z,90.70
2019-05-10T07:22:11.021Z,90.70
2019-05-10T07:32:16.325Z,90.60
2019-05-10T07:42:17.003Z,90.60
2019-05-10T07:52:19.039Z,90.00
2019-05-10T08:02:21.154Z,88.60
2019-05-10T08:12:23.171Z,86.50
2019-05-10T08:22:25.182Z,87.00
2019-05-10T08:32:29.948Z,83.70
2019-05-10T08:42:43.770Z,80.10
2019-05-10T08:52:35.067Z,78.00
2019-05-10T09:02:37.074Z,78.30
2019-05-10T09:12:41.747Z,77.70
2019-05-10T09:22:42.963Z,77.90
2019-05-10T09:32:45.055Z,78.40
2019-05-10T09:42:47.132Z,79.70
2019-05-10T09:52:49.151Z,78.70
2019-05-10T10:02:56.435Z,76.50
2019-05-10T10:12:58.379Z,74.40
2019-05-10T10:22:58.754Z,73.50
2019-05-10T10:33:05.578Z,73.40
2019-05-10T10:43:04.638Z,73.50
2019-05-10T10:53:08.054Z,73.60
2019-05-10T11:03:10.267Z,68.10
2019-05-10T11:13:20.265Z,67.10
2019-05-10T11:23:16.373Z,66.70
2019-05-10T11:33:29.131Z,68.90
2019-05-10T11:43:25.674Z,69.60
2019-05-10T11:53:26.211Z,68.70
2019-05-10T12:03:28.197Z,65.80
2019-05-10T12:13:32.736Z,64.80
2019-05-10T12:23:33.951Z,60.90
2019-05-10T12:33:35.376Z,53.20
2019-05-10T12:43:37.415Z,37.90
2019-05-10T12:53:44.624Z,24.70
2019-05-10T13:03:43.325Z,17.50
2019-05-10T13:13:45.373Z,15.30
2019-05-10T13:23:53.249Z,14.90
2019-05-10T13:33:51.156Z,14.80
2019-05-10T13:43:53.188Z,23.40
2019-05-10T13:53:58.932Z,29.50
2019-05-10T14:04:01.458Z,36.70
2019-05-10T14:14:02.749Z,37.10
2019-05-10T14:24:09.221Z,37.70
2019-05-10T14:34:16.002Z,29.20
2019-05-10T14:44:12.274Z,29.20
2019-05-10T14:54:14.296Z,27.20
2019-05-10T15:04:20.316Z,23.00
2019-05-10T15:14:20.057Z,24.20
2019-05-10T15:24:21.987Z,30.80
2019-05-10T15:34:23.953Z,34.70
2019-05-10T15:44:31.396Z,37.90
2019-05-10T15:54:29.662Z,39.30
2019-05-10T16:04:31.676Z,42.00
2019-05-10T16:14:39.150Z,42.70
2019-05-10T16:24:37.918Z,44.10
2019-05-10T16:34:40.011Z,44.90
2019-05-10T16:44:41.967Z,45.90
2019-05-10T16:54:43.975Z,47.10
2019-05-10T17:04:45.975Z,45.90
2019-05-10T17:14:50.439Z,46.70
2019-05-10T17:24:56.935Z,48.00
2019-05-10T17:34:59.128Z,49.90
2019-05-10T17:45:01.682Z,51.20
2019-05-10T17:55:03.930Z,52.00
2019-05-10T18:05:07.734Z,52.80
2019-05-10T18:15:09.687Z,56.10
2019-05-10T18:25:19.543Z,54.00
2019-05-10T18:35:17.034Z,55.10
2019-05-10T18:45:23.342Z,55.30
2019-05-10T18:55:22.947Z,55.70
2019-05-10T19:05:31.210Z,56.10
2019-05-10T19:15:28.785Z,56.30
2019-05-10T19:25:30.812Z,57.40
2019-05-10T19:35:35.905Z,58.10
2019-05-10T19:45:36.672Z,58.00
2019-05-10T19:55:38.642Z,58.30
2019-05-10T20:05:40.651Z,58.80
2019-05-10T20:15:42.617Z,59.00
2019-05-10T20:25:44.558Z,59.50
2019-05-10T20:35:46.617Z,59.40
2019-05-10T20:45:49.040Z,59.40
2019-05-10T20:55:52.072Z,59.20
2019-05-10T21:05:54.176Z,59.50
2019-05-10T21:15:56.255Z,59.90
2019-05-10T21:25:58.592Z,60.70
2019-05-10T21:36:00.924Z,61.10
2019-05-10T21:46:04.210Z,61.30
2019-05-10T21:56:06.247Z,61.60
2019-05-10T22:06:08.696Z,62.10
2019-05-10T22:16:10.660Z,62.80
2019-05-10T22:26:12.602Z,63.10
2019-05-10T22:36:14.551Z,63.30
2019-05-10T22:46:18.260Z,63.80
2019-05-10T22:56:20.371Z,64.00
2019-05-10T23:06:22.396Z,64.10
2019-05-10T23:16:24.389Z,64.30
2019-05-10T23:26:26.380Z,64.40
2019-05-10T23:36:28.410Z,64.30
2019-05-10T23:46:30.403Z,64.90
2019-05-10T23:56:32.342Z,65.40
